Nord Mykonos — V7SN5 — position and weather

sailwx.info

Track history (hours):
 
Tides and Currents Weather Stations Pressure Air Temp Water Temp Dewpoint Dewpoint Depression Visibility Wind Speed Wind Dir Waves Ship Positions

Nord Mykonos

Last reported at 2018-Mar-05 15:41 UTC. Time now 2018-Apr-25 06:48 UTC.
Position N 09°13' W 079°55'.
Warning: this ship's position is 50 days out of date.

Length 180 m; draft 10 m.

Type: Cargo ship. MMSI: 538003686.

Date/timePositionNaut miles runAvg speedWind from/ knotsBaromVisibWave heightAir tempDewpointWater temp
2018-Mar-05 15:41N 09°13' W 079°55'2 5.6
2018-Mar-05 15:14N 09°15' W 079°55'0 1.9
2018-Mar-05 15:00N 09°16' W 079°55'0 0.5
2018-Mar-05 14:30N 09°16' W 079°55'0 0.5
2018-Mar-05 14:00N 09°16' W 079°55'0 0.4
2018-Mar-05 13:30N 09°16' W 079°55'0 0.4
2018-Mar-05 13:00N 09°17' W 079°55'0 0.5
2018-Mar-05 12:29N 09°17' W 079°55'1 2.4
2018-Mar-05 12:00N 09°18' W 079°55'2 3.3
2018-Mar-05 11:30N 09°20' W 079°55'2 4.5
2018-Mar-05 11:00N 09°22' W 079°55'3 6.6
2018-Mar-05 10:30N 09°25' W 079°55'1 1.0
2018-Mar-05 09:59N 09°26' W 079°56'0 0.2
2018-Mar-05 09:29N 09°26' W 079°56'0 0.1
2018-Mar-05 08:59N 09°26' W 079°56'0 0.1
2018-Mar-05 08:26N 09°26' W 079°56'0 0.0
2018-Mar-05 07:59N 09°26' W 079°56'0 0.0
2018-Mar-05 07:23N 09°26' W 079°56'0 0.0
2018-Mar-05 06:59N 09°26' W 079°56'0 0.0
2018-Mar-05 06:29N 09°26' W 079°56'0 0.0
2018-Mar-05 05:56N 09°26' W 079°56'0 0.0
2018-Mar-05 05:26N 09°26' W 079°55'0 0.0
2018-Mar-05 04:59N 09°26' W 079°55'0 0.0
2018-Mar-05 04:29N 09°26' W 079°55'0 0.0
2018-Mar-05 03:47N 09°26' W 079°55'0 0.1
2018-Mar-05 03:29N 09°26' W 079°55'0 0.0
2018-Mar-05 02:59N 09°26' W 079°56'0 0.4
2018-Mar-05 02:29N 09°26' W 079°55'2 3.7
2018-Mar-05 02:00N 09°27' W 079°55'  
2018-Feb-28 23:19N 27°37' W 082°40'611.0
2018-Feb-28 22:49N 27°41' W 082°35'310.9
2018-Feb-28 22:30N 27°43' W 082°32'5 9.9
2018-Feb-28 22:00N 27°48' W 082°30'4 8.7
2018-Feb-28 21:30N 27°51' W 082°27'4 7.2
2018-Feb-28 21:01N 27°55' W 082°26'1 1.1
2018-Feb-28 20:28N 27°55' W 082°25'0 0.0
2018-Feb-28 19:58N 27°55' W 082°25'0 0.0
2018-Feb-28 19:28N 27°55' W 082°25'0 0.0
2018-Feb-28 18:58N 27°55' W 082°25'0 0.0
2018-Feb-28 18:28N 27°55' W 082°25'0 0.0
2018-Feb-28 17:58N 27°55' W 082°25'0 0.0
2018-Feb-28 17:28N 27°55' W 082°25'0 0.0
2018-Feb-28 16:58N 27°55' W 082°25'0 0.0
2018-Feb-28 16:28N 27°55' W 082°25'0 0.0
2018-Feb-28 15:58N 27°55' W 082°25'0 0.0
2018-Feb-28 15:28N 27°55' W 082°25'0 0.0
2018-Feb-28 14:58N 27°55' W 082°25'0 0.0
2018-Feb-28 14:28N 27°55' W 082°25'0 0.0
2018-Feb-28 13:58N 27°55' W 082°25'0 0.0
2018-Feb-28 13:28N 27°55' W 082°25'0 0.0
2018-Feb-28 12:58N 27°55' W 082°25'0 0.0
2018-Feb-28 12:28N 27°55' W 082°25'0 0.0
2018-Feb-28 11:58N 27°55' W 082°25'0 0.0
2018-Feb-28 11:28N 27°55' W 082°25'0 0.0
2018-Feb-28 10:58N 27°55' W 082°25'0 0.0
2018-Feb-28 10:28N 27°55' W 082°25'0 0.0
2018-Feb-28 09:58N 27°55' W 082°25'0 0.0
2018-Feb-28 09:25N 27°55' W 082°25'0 0.0
2018-Feb-28 08:58N 27°55' W 082°25'0 0.0
2018-Feb-28 08:28N 27°55' W 082°25'0 0.0
2018-Feb-28 07:58N 27°55' W 082°25'0 0.0
2018-Feb-28 07:28N 27°55' W 082°25'0 0.0
2018-Feb-28 06:58N 27°55' W 082°25'0 0.0
2018-Feb-28 06:28N 27°55' W 082°25'0 0.0
2018-Feb-28 05:58N 27°55' W 082°25'0 0.0
2018-Feb-28 05:28N 27°55' W 082°25'0 0.0
2018-Feb-28 04:58N 27°55' W 082°25'0 0.0
2018-Feb-28 04:28N 27°55' W 082°25'0 0.0
2018-Feb-28 03:58N 27°55' W 082°25'0 0.0
2018-Feb-28 03:28N 27°55' W 082°25'0 0.0
2018-Feb-28 02:58N 27°55' W 082°25'0 0.0
2018-Feb-28 02:28N 27°55' W 082°25'0 0.0
2018-Feb-28 01:58N 27°55' W 082°25'0 0.0
2018-Feb-28 01:28N 27°55' W 082°25'0 0.0
2018-Feb-28 00:58N 27°55' W 082°25'0 0.0
2018-Feb-28 00:28N 27°55' W 082°25'0 0.0
2018-Feb-27 23:58N 27°55' W 082°25'0 0.0
2018-Feb-27 23:28N 27°55' W 082°25'0 0.0
2018-Feb-27 22:58N 27°55' W 082°25'0 0.0
2018-Feb-27 22:28N 27°55' W 082°25'0 0.0
2018-Feb-27 21:58N 27°55' W 082°25'0 0.0
2018-Feb-27 21:28N 27°55' W 082°25'0 0.0
2018-Feb-27 20:58N 27°55' W 082°25'0 0.0
2018-Feb-27 20:28N 27°55' W 082°25'0 0.0
2018-Feb-27 19:58N 27°55' W 082°25'0 0.0
2018-Feb-27 19:28N 27°55' W 082°25'0 0.0
2018-Feb-27 18:58N 27°55' W 082°25'0 0.0
2018-Feb-27 18:28N 27°55' W 082°25'0 0.0
2018-Feb-27 17:58N 27°55' W 082°25'0 0.0
2018-Feb-27 17:28N 27°55' W 082°25'0 0.0
2018-Feb-27 16:58N 27°55' W 082°25'0 0.0
2018-Feb-27 16:28N 27°55' W 082°25'0 0.0
2018-Feb-27 15:58N 27°55' W 082°25'0 0.0
2018-Feb-27 15:28N 27°55' W 082°25'0 0.0
2018-Feb-27 14:58N 27°55' W 082°25'0 0.0
2018-Feb-27 14:28N 27°55' W 082°25'0 0.0
2018-Feb-27 13:58N 27°55' W 082°25'0 0.0
2018-Feb-27 13:28N 27°55' W 082°25'0 0.0
2018-Feb-27 12:58N 27°55' W 082°25'0 0.0
2018-Feb-27 12:28N 27°55' W 082°25'0 0.0
2018-Feb-27 11:58N 27°55' W 082°25'0 0.0
2018-Feb-27 11:28N 27°55' W 082°25'0 0.0
2018-Feb-27 10:58N 27°55' W 082°25'0 0.0
2018-Feb-27 10:28N 27°55' W 082°25'0 0.0
2018-Feb-27 09:58N 27°55' W 082°25'0 0.0
2018-Feb-27 09:28N 27°55' W 082°25'0 0.0
2018-Feb-27 08:58N 27°55' W 082°25'0 0.0
2018-Feb-27 08:28N 27°55' W 082°25'0 0.0
2018-Feb-27 07:58N 27°55' W 082°25'0 0.0
2018-Feb-27 07:28N 27°55' W 082°25'0 0.0
2018-Feb-27 06:58N 27°55' W 082°25'0 0.0
2018-Feb-27 06:28N 27°55' W 082°25'0 0.0
2018-Feb-27 05:58N 27°55' W 082°25'0 0.0
2018-Feb-27 05:28N 27°55' W 082°25'0 0.0
2018-Feb-27 04:58N 27°55' W 082°25'0 0.0
2018-Feb-27 04:28N 27°55' W 082°25'0 0.0
2018-Feb-27 03:58N 27°55' W 082°25'0 0.0
2018-Feb-27 03:28N 27°55' W 082°25'0 0.0
2018-Feb-27 02:58N 27°55' W 082°25'0 0.0
2018-Feb-27 02:28N 27°55' W 082°25'0 0.0
2018-Feb-27 01:58N 27°55' W 082°25'0 0.0
2018-Feb-27 01:28N 27°55' W 082°25'0 0.0
2018-Feb-27 00:58N 27°55' W 082°25'0 0.0
2018-Feb-27 00:25N 27°55' W 082°25'0 0.0
2018-Feb-26 23:58N 27°55' W 082°25'0 0.0
2018-Feb-26 23:28N 27°55' W 082°25'0 0.0
2018-Feb-26 22:58N 27°55' W 082°25'0 0.0
2018-Feb-26 22:28N 27°55' W 082°25'0 0.0
2018-Feb-26 21:58N 27°55' W 082°25'0 0.0
2018-Feb-26 21:28N 27°55' W 082°25'0 0.0
2018-Feb-26 20:58N 27°55' W 082°25'0 0.0
2018-Feb-26 20:28N 27°55' W 082°25'0 0.0
2018-Feb-26 19:58N 27°55' W 082°25'0 0.0
2018-Feb-26 19:28N 27°55' W 082°25'0 0.0
2018-Feb-26 18:58N 27°55' W 082°25'0 0.0
2018-Feb-26 18:28N 27°55' W 082°25'0 0.0
2018-Feb-26 17:58N 27°55' W 082°25'0 0.1
2018-Feb-26 17:28N 27°55' W 082°25'0 0.6
2018-Feb-26 16:58N 27°55' W 082°26'0 0.0
2018-Feb-26 16:25N 27°55' W 082°26'0 0.0
2018-Feb-26 15:58N 27°55' W 082°26'0 0.0
2018-Feb-26 15:28N 27°55' W 082°26'0 0.0
2018-Feb-26 14:58N 27°55' W 082°26'0 0.0
2018-Feb-26 14:28N 27°55' W 082°26'0 0.0
2018-Feb-26 13:55N 27°55' W 082°26'0 0.0
2018-Feb-26 13:28N 27°55' W 082°26'0 0.0
2018-Feb-26 12:58N 27°55' W 082°26'0 0.0
2018-Feb-26 12:28N 27°55' W 082°26'0 0.0
2018-Feb-26 11:58N 27°55' W 082°26'0 0.0
2018-Feb-26 11:28N 27°55' W 082°26'0 0.0
2018-Feb-26 10:58N 27°55' W 082°26'0 0.0
2018-Feb-26 10:28N 27°55' W 082°26'0 0.0
2018-Feb-26 09:58N 27°55' W 082°26'0 0.0
2018-Feb-26 09:28N 27°55' W 082°26'0 0.0
2018-Feb-26 08:58N 27°55' W 082°26'0 0.0
2018-Feb-26 08:28N 27°55' W 082°26'0 0.0
2018-Feb-26 07:58N 27°55' W 082°26'0 0.0
2018-Feb-26 07:28N 27°55' W 082°26'0 0.0
2018-Feb-26 06:58N 27°55' W 082°26'0 0.0
2018-Feb-26 06:28N 27°55' W 082°26'0 0.0
2018-Feb-26 05:58N 27°55' W 082°26'0 0.0
2018-Feb-26 05:28N 27°55' W 082°26'0 0.0
2018-Feb-26 04:58N 27°55' W 082°26'0 0.0
2018-Feb-26 04:28N 27°55' W 082°26'0 0.0
2018-Feb-26 03:58N 27°55' W 082°26'0 0.0
2018-Feb-26 03:28N 27°55' W 082°26'0 0.0
2018-Feb-26 02:58N 27°55' W 082°26'0 0.0
2018-Feb-26 02:28N 27°55' W 082°26'0 0.0
2018-Feb-26 01:58N 27°55' W 082°26'0 0.0
2018-Feb-26 01:28N 27°55' W 082°26'0 0.0
2018-Feb-26 00:58N 27°55' W 082°26'0 0.0
2018-Feb-26 00:28N 27°55' W 082°26'0 0.0
2018-Feb-25 23:58N 27°55' W 082°26'0 0.0
2018-Feb-25 23:28N 27°55' W 082°26'0 0.0
2018-Feb-25 22:52N 27°55' W 082°26'0 0.0
2018-Feb-25 22:28N 27°55' W 082°26'0 0.0
2018-Feb-25 21:58N 27°55' W 082°26'0 0.0
2018-Feb-25 21:28N 27°55' W 082°26'0 0.0
2018-Feb-25 20:58N 27°55' W 082°26'0 0.0
2018-Feb-25 20:28N 27°55' W 082°26'0 0.0
2018-Feb-25 19:58N 27°55' W 082°26'0 0.0
2018-Feb-25 19:28N 27°55' W 082°26'0 0.0
2018-Feb-25 18:58N 27°55' W 082°26'0 0.0
2018-Feb-25 18:28N 27°55' W 082°26'0 0.0
2018-Feb-25 17:58N 27°55' W 082°26'0 0.0
2018-Feb-25 17:28N 27°55' W 082°26'0 0.0
2018-Feb-25 16:58N 27°55' W 082°26'0 0.0
2018-Feb-25 16:28N 27°55' W 082°26'0 0.0
2018-Feb-25 15:58N 27°55' W 082°26'0 0.0
2018-Feb-25 15:28N 27°55' W 082°26'0 0.0
2018-Feb-25 14:52N 27°55' W 082°26'0 0.0
2018-Feb-25 14:28N 27°55' W 082°26'0 0.0
2018-Feb-25 13:58N 27°55' W 082°26'0 0.0
2018-Feb-25 13:28N 27°55' W 082°26'0 0.0
2018-Feb-25 12:58N 27°55' W 082°26'0 0.2
2018-Feb-25 12:30N 27°55' W 082°26'2 4.0
2018-Feb-25 12:00N 27°53' W 082°26'5 9.9
2018-Feb-25 11:31N 27°48' W 082°28'5 9.5
2018-Feb-25 11:01N 27°45' W 082°32'911.5
2018-Feb-25 10:13N 27°38' W 082°38'  
Track history (hours):
 
Tides and Currents Weather Stations Pressure Air Temp Water Temp Dewpoint Dewpoint Depression Visibility Wind Speed Wind Dir Waves Ship Positions

Nord Mykonos

Last reported at 2018-Mar-05 15:41 UTC. Time now 2018-Apr-25 06:48 UTC.
Position N 09°13' W 079°55'.
Warning: this ship's position is 50 days out of date.

Length 180 m; draft 10 m.

Type: Cargo ship. MMSI: 538003686.

Date/timePositionNaut miles runAvg speedWind from/ knotsBaromVisibWave heightAir tempDewpointWater temp
2018-Mar-05 15:41N 09°13' W 079°55'2 5.6
2018-Mar-05 15:14N 09°15' W 079°55'0 1.9
2018-Mar-05 15:00N 09°16' W 079°55'0 0.5
2018-Mar-05 14:30N 09°16' W 079°55'0 0.5
2018-Mar-05 14:00N 09°16' W 079°55'0 0.4
2018-Mar-05 13:30N 09°16' W 079°55'0 0.4
2018-Mar-05 13:00N 09°17' W 079°55'0 0.5
2018-Mar-05 12:29N 09°17' W 079°55'1 2.4
2018-Mar-05 12:00N 09°18' W 079°55'2 3.3
2018-Mar-05 11:30N 09°20' W 079°55'2 4.5
2018-Mar-05 11:00N 09°22' W 079°55'3 6.6
2018-Mar-05 10:30N 09°25' W 079°55'1 1.0
2018-Mar-05 09:59N 09°26' W 079°56'0 0.2
2018-Mar-05 09:29N 09°26' W 079°56'0 0.1
2018-Mar-05 08:59N 09°26' W 079°56'0 0.1
2018-Mar-05 08:26N 09°26' W 079°56'0 0.0
2018-Mar-05 07:59N 09°26' W 079°56'0 0.0
2018-Mar-05 07:23N 09°26' W 079°56'0 0.0
2018-Mar-05 06:59N 09°26' W 079°56'0 0.0
2018-Mar-05 06:29N 09°26' W 079°56'0 0.0
2018-Mar-05 05:56N 09°26' W 079°56'0 0.0
2018-Mar-05 05:26N 09°26' W 079°55'0 0.0
2018-Mar-05 04:59N 09°26' W 079°55'0 0.0
2018-Mar-05 04:29N 09°26' W 079°55'0 0.0
2018-Mar-05 03:47N 09°26' W 079°55'0 0.1
2018-Mar-05 03:29N 09°26' W 079°55'0 0.0
2018-Mar-05 02:59N 09°26' W 079°56'0 0.4
2018-Mar-05 02:29N 09°26' W 079°55'2 3.7
2018-Mar-05 02:00N 09°27' W 079°55'  
2018-Feb-28 23:19N 27°37' W 082°40'611.0
2018-Feb-28 22:49N 27°41' W 082°35'310.9
2018-Feb-28 22:30N 27°43' W 082°32'5 9.9
2018-Feb-28 22:00N 27°48' W 082°30'4 8.7
2018-Feb-28 21:30N 27°51' W 082°27'4 7.2
2018-Feb-28 21:01N 27°55' W 082°26'1 1.1
2018-Feb-28 20:28N 27°55' W 082°25'0 0.0
2018-Feb-28 19:58N 27°55' W 082°25'0 0.0
2018-Feb-28 19:28N 27°55' W 082°25'0 0.0
2018-Feb-28 18:58N 27°55' W 082°25'0 0.0
2018-Feb-28 18:28N 27°55' W 082°25'0 0.0
2018-Feb-28 17:58N 27°55' W 082°25'0 0.0
2018-Feb-28 17:28N 27°55' W 082°25'0 0.0
2018-Feb-28 16:58N 27°55' W 082°25'0 0.0
2018-Feb-28 16:28N 27°55' W 082°25'0 0.0
2018-Feb-28 15:58N 27°55' W 082°25'0 0.0
2018-Feb-28 15:28N 27°55' W 082°25'0 0.0
2018-Feb-28 14:58N 27°55' W 082°25'0 0.0
2018-Feb-28 14:28N 27°55' W 082°25'0 0.0
2018-Feb-28 13:58N 27°55' W 082°25'0 0.0
2018-Feb-28 13:28N 27°55' W 082°25'0 0.0
2018-Feb-28 12:58N 27°55' W 082°25'0 0.0
2018-Feb-28 12:28N 27°55' W 082°25'0 0.0
2018-Feb-28 11:58N 27°55' W 082°25'0 0.0
2018-Feb-28 11:28N 27°55' W 082°25'0 0.0
2018-Feb-28 10:58N 27°55' W 082°25'0 0.0
2018-Feb-28 10:28N 27°55' W 082°25'0 0.0
2018-Feb-28 09:58N 27°55' W 082°25'0 0.0
2018-Feb-28 09:25N 27°55' W 082°25'0 0.0
2018-Feb-28 08:58N 27°55' W 082°25'0 0.0
2018-Feb-28 08:28N 27°55' W 082°25'0 0.0
2018-Feb-28 07:58N 27°55' W 082°25'0 0.0
2018-Feb-28 07:28N 27°55' W 082°25'0 0.0
2018-Feb-28 06:58N 27°55' W 082°25'0 0.0
2018-Feb-28 06:28N 27°55' W 082°25'0 0.0
2018-Feb-28 05:58N 27°55' W 082°25'0 0.0
2018-Feb-28 05:28N 27°55' W 082°25'0 0.0
2018-Feb-28 04:58N 27°55' W 082°25'0 0.0
2018-Feb-28 04:28N 27°55' W 082°25'0 0.0
2018-Feb-28 03:58N 27°55' W 082°25'0 0.0
2018-Feb-28 03:28N 27°55' W 082°25'0 0.0
2018-Feb-28 02:58N 27°55' W 082°25'0 0.0
2018-Feb-28 02:28N 27°55' W 082°25'0 0.0
2018-Feb-28 01:58N 27°55' W 082°25'0 0.0
2018-Feb-28 01:28N 27°55' W 082°25'0 0.0
2018-Feb-28 00:58N 27°55' W 082°25'0 0.0
2018-Feb-28 00:28N 27°55' W 082°25'0 0.0
2018-Feb-27 23:58N 27°55' W 082°25'0 0.0
2018-Feb-27 23:28N 27°55' W 082°25'0 0.0
2018-Feb-27 22:58N 27°55' W 082°25'0 0.0
2018-Feb-27 22:28N 27°55' W 082°25'0 0.0
2018-Feb-27 21:58N 27°55' W 082°25'0 0.0
2018-Feb-27 21:28N 27°55' W 082°25'0 0.0
2018-Feb-27 20:58N 27°55' W 082°25'0 0.0
2018-Feb-27 20:28N 27°55' W 082°25'0 0.0
2018-Feb-27 19:58N 27°55' W 082°25'0 0.0
2018-Feb-27 19:28N 27°55' W 082°25'0 0.0
2018-Feb-27 18:58N 27°55' W 082°25'0 0.0
2018-Feb-27 18:28N 27°55' W 082°25'0 0.0
2018-Feb-27 17:58N 27°55' W 082°25'0 0.0
2018-Feb-27 17:28N 27°55' W 082°25'0 0.0
2018-Feb-27 16:58N 27°55' W 082°25'0 0.0
2018-Feb-27 16:28N 27°55' W 082°25'0 0.0
2018-Feb-27 15:58N 27°55' W 082°25'0 0.0
2018-Feb-27 15:28N 27°55' W 082°25'0 0.0
2018-Feb-27 14:58N 27°55' W 082°25'0 0.0
2018-Feb-27 14:28N 27°55' W 082°25'0 0.0
2018-Feb-27 13:58N 27°55' W 082°25'0 0.0
2018-Feb-27 13:28N 27°55' W 082°25'0 0.0
2018-Feb-27 12:58N 27°55' W 082°25'0 0.0
2018-Feb-27 12:28N 27°55' W 082°25'0 0.0
2018-Feb-27 11:58N 27°55' W 082°25'0 0.0
2018-Feb-27 11:28N 27°55' W 082°25'0 0.0
2018-Feb-27 10:58N 27°55' W 082°25'0 0.0
2018-Feb-27 10:28N 27°55' W 082°25'0 0.0
2018-Feb-27 09:58N 27°55' W 082°25'0 0.0
2018-Feb-27 09:28N 27°55' W 082°25'0 0.0
2018-Feb-27 08:58N 27°55' W 082°25'0 0.0
2018-Feb-27 08:28N 27°55' W 082°25'0 0.0
2018-Feb-27 07:58N 27°55' W 082°25'0 0.0
2018-Feb-27 07:28N 27°55' W 082°25'0 0.0
2018-Feb-27 06:58N 27°55' W 082°25'0 0.0
2018-Feb-27 06:28N 27°55' W 082°25'0 0.0
2018-Feb-27 05:58N 27°55' W 082°25'0 0.0
2018-Feb-27 05:28N 27°55' W 082°25'0 0.0
2018-Feb-27 04:58N 27°55' W 082°25'0 0.0
2018-Feb-27 04:28N 27°55' W 082°25'0 0.0
2018-Feb-27 03:58N 27°55' W 082°25'0 0.0
2018-Feb-27 03:28N 27°55' W 082°25'0 0.0
2018-Feb-27 02:58N 27°55' W 082°25'0 0.0
2018-Feb-27 02:28N 27°55' W 082°25'0 0.0
2018-Feb-27 01:58N 27°55' W 082°25'0 0.0
2018-Feb-27 01:28N 27°55' W 082°25'0 0.0
2018-Feb-27 00:58N 27°55' W 082°25'0 0.0
2018-Feb-27 00:25N 27°55' W 082°25'0 0.0
2018-Feb-26 23:58N 27°55' W 082°25'0 0.0
2018-Feb-26 23:28N 27°55' W 082°25'0 0.0
2018-Feb-26 22:58N 27°55' W 082°25'0 0.0
2018-Feb-26 22:28N 27°55' W 082°25'0 0.0
2018-Feb-26 21:58N 27°55' W 082°25'0 0.0
2018-Feb-26 21:28N 27°55' W 082°25'0 0.0
2018-Feb-26 20:58N 27°55' W 082°25'0 0.0
2018-Feb-26 20:28N 27°55' W 082°25'0 0.0
2018-Feb-26 19:58N 27°55' W 082°25'0 0.0
2018-Feb-26 19:28N 27°55' W 082°25'0 0.0
2018-Feb-26 18:58N 27°55' W 082°25'0 0.0
2018-Feb-26 18:28N 27°55' W 082°25'0 0.0
2018-Feb-26 17:58N 27°55' W 082°25'0 0.1
2018-Feb-26 17:28N 27°55' W 082°25'0 0.6
2018-Feb-26 16:58N 27°55' W 082°26'0 0.0
2018-Feb-26 16:25N 27°55' W 082°26'0 0.0
2018-Feb-26 15:58N 27°55' W 082°26'0 0.0
2018-Feb-26 15:28N 27°55' W 082°26'0 0.0
2018-Feb-26 14:58N 27°55' W 082°26'0 0.0
2018-Feb-26 14:28N 27°55' W 082°26'0 0.0
2018-Feb-26 13:55N 27°55' W 082°26'0 0.0
2018-Feb-26 13:28N 27°55' W 082°26'0 0.0
2018-Feb-26 12:58N 27°55' W 082°26'0 0.0
2018-Feb-26 12:28N 27°55' W 082°26'0 0.0
2018-Feb-26 11:58N 27°55' W 082°26'0 0.0
2018-Feb-26 11:28N 27°55' W 082°26'0 0.0
2018-Feb-26 10:58N 27°55' W 082°26'0 0.0
2018-Feb-26 10:28N 27°55' W 082°26'0 0.0
2018-Feb-26 09:58N 27°55' W 082°26'0 0.0
2018-Feb-26 09:28N 27°55' W 082°26'0 0.0
2018-Feb-26 08:58N 27°55' W 082°26'0 0.0
2018-Feb-26 08:28N 27°55' W 082°26'0 0.0
2018-Feb-26 07:58N 27°55' W 082°26'0 0.0
2018-Feb-26 07:28N 27°55' W 082°26'0 0.0
2018-Feb-26 06:58N 27°55' W 082°26'0 0.0
2018-Feb-26 06:28N 27°55' W 082°26'0 0.0
2018-Feb-26 05:58N 27°55' W 082°26'0 0.0
2018-Feb-26 05:28N 27°55' W 082°26'0 0.0
2018-Feb-26 04:58N 27°55' W 082°26'0 0.0
2018-Feb-26 04:28N 27°55' W 082°26'0 0.0
2018-Feb-26 03:58N 27°55' W 082°26'0 0.0
2018-Feb-26 03:28N 27°55' W 082°26'0 0.0
2018-Feb-26 02:58N 27°55' W 082°26'0 0.0
2018-Feb-26 02:28N 27°55' W 082°26'0 0.0
2018-Feb-26 01:58N 27°55' W 082°26'0 0.0
2018-Feb-26 01:28N 27°55' W 082°26'0 0.0
2018-Feb-26 00:58N 27°55' W 082°26'0 0.0
2018-Feb-26 00:28N 27°55' W 082°26'0 0.0
2018-Feb-25 23:58N 27°55' W 082°26'0 0.0
2018-Feb-25 23:28N 27°55' W 082°26'0 0.0
2018-Feb-25 22:52N 27°55' W 082°26'0 0.0
2018-Feb-25 22:28N 27°55' W 082°26'0 0.0
2018-Feb-25 21:58N 27°55' W 082°26'0 0.0
2018-Feb-25 21:28N 27°55' W 082°26'0 0.0
2018-Feb-25 20:58N 27°55' W 082°26'0 0.0
2018-Feb-25 20:28N 27°55' W 082°26'0 0.0
2018-Feb-25 19:58N 27°55' W 082°26'0 0.0
2018-Feb-25 19:28N 27°55' W 082°26'0 0.0
2018-Feb-25 18:58N 27°55' W 082°26'0 0.0
2018-Feb-25 18:28N 27°55' W 082°26'0 0.0
2018-Feb-25 17:58N 27°55' W 082°26'0 0.0
2018-Feb-25 17:28N 27°55' W 082°26'0 0.0
2018-Feb-25 16:58N 27°55' W 082°26'0 0.0
2018-Feb-25 16:28N 27°55' W 082°26'0 0.0
2018-Feb-25 15:58N 27°55' W 082°26'0 0.0
2018-Feb-25 15:28N 27°55' W 082°26'0 0.0
2018-Feb-25 14:52N 27°55' W 082°26'0 0.0
2018-Feb-25 14:28N 27°55' W 082°26'0 0.0
2018-Feb-25 13:58N 27°55' W 082°26'0 0.0
2018-Feb-25 13:28N 27°55' W 082°26'0 0.0
2018-Feb-25 12:58N 27°55' W 082°26'0 0.2
2018-Feb-25 12:30N 27°55' W 082°26'2 4.0
2018-Feb-25 12:00N 27°53' W 082°26'5 9.9
2018-Feb-25 11:31N 27°48' W 082°28'5 9.5
2018-Feb-25 11:01N 27°45' W 082°32'911.5
2018-Feb-25 10:13N 27°38' W 082°38'  

Dump ship's entire track history